createdAt,value
2023-03-02T00:01:58.157Z,8.00
2023-03-02T00:04:29.662Z,7.60
2023-03-02T00:07:05.621Z,8.00
2023-03-02T00:09:34.461Z,9.00
2023-03-02T00:12:03.403Z,7.40
2023-03-02T00:14:32.520Z,8.10
2023-03-02T00:17:03.188Z,7.30
2023-03-02T00:19:32.102Z,6.80
2023-03-02T00:22:00.625Z,7.90
2023-03-02T00:24:29.521Z,6.50
2023-03-02T00:26:58.822Z,7.10
2023-03-02T00:29:27.510Z,6.50
2023-03-02T00:31:56.115Z,6.80
2023-03-02T00:34:24.770Z,6.60
2023-03-02T00:36:53.222Z,7.00
2023-03-02T00:39:21.647Z,6.70
2023-03-02T00:41:50.281Z,7.10
2023-03-02T00:44:18.768Z,7.30
2023-03-02T00:46:47.576Z,6.40
2023-03-02T00:49:17.938Z,7.20
2023-03-02T00:51:49.290Z,6.50
2023-03-02T00:54:17.783Z,7.20
2023-03-02T00:56:46.801Z,7.90
2023-03-02T00:59:27.741Z,7.30
2023-03-02T01:02:07.659Z,7.30
2023-03-02T01:04:40.726Z,6.90
2023-03-02T01:07:12.643Z,6.20
2023-03-02T01:09:42.362Z,6.10
2023-03-02T01:12:11.633Z,5.10
2023-03-02T01:14:42.942Z,7.50
2023-03-02T01:17:11.432Z,6.90
2023-03-02T01:19:41.469Z,7.20
2023-03-02T01:22:10.147Z,6.30
2023-03-02T01:24:44.695Z,6.10
2023-03-02T01:27:13.572Z,6.10
2023-03-02T01:29:42.123Z,6.10
2023-03-02T01:32:10.762Z,6.30
2023-03-02T01:34:39.752Z,5.80
2023-03-02T01:37:08.194Z,5.50
2023-03-02T01:39:36.814Z,5.60
2023-03-02T01:42:07.313Z,4.70
2023-03-02T01:44:40.201Z,4.70
2023-03-02T01:47:15.504Z,5.20
2023-03-02T01:49:53.631Z,5.40
2023-03-02T01:52:24.205Z,5.50
2023-03-02T01:54:54.060Z,4.90
2023-03-02T01:57:24.254Z,4.50
2023-03-02T01:59:59.883Z,4.70
2023-03-02T02:02:28.538Z,6.00
2023-03-02T02:04:57.454Z,5.70
2023-03-02T02:07:25.840Z,6.00
2023-03-02T02:09:56.978Z,7.70
2023-03-02T02:12:26.422Z,7.40
2023-03-02T02:15:00.829Z,7.50
2023-03-02T02:17:30.408Z,8.40
2023-03-02T02:20:09.721Z,7.90
2023-03-02T02:22:38.125Z,8.90
2023-03-02T02:25:10.631Z,8.50
2023-03-02T02:27:41.093Z,8.50
2023-03-02T02:30:11.588Z,9.30
2023-03-02T02:32:40.255Z,9.30
2023-03-02T02:35:15.007Z,9.10
2023-03-02T02:37:46.413Z,9.70
2023-03-02T02:40:22.747Z,10.90
2023-03-02T02:42:51.860Z,9.90
2023-03-02T02:45:25.499Z,12.10
2023-03-02T02:47:55.360Z,13.40
2023-03-02T02:50:32.414Z,11.10
2023-03-02T02:53:15.503Z,12.80
2023-03-02T02:55:47.537Z,11.50
2023-03-02T02:58:42.621Z,13.90
2023-03-02T03:01:14.101Z,13.20
2023-03-02T03:03:46.819Z,14.20
2023-03-02T03:06:23.453Z,13.30
2023-03-02T03:08:54.414Z,14.10
2023-03-02T03:11:29.132Z,13.60
2023-03-02T03:14:18.877Z,15.10
2023-03-02T03:16:51.369Z,14.00
2023-03-02T03:19:27.156Z,13.50
2023-03-02T03:21:57.623Z,10.20
2023-03-02T03:24:33.060Z,11.20
2023-03-02T03:27:02.191Z,13.60
2023-03-02T03:29:31.733Z,12.60
2023-03-02T03:32:02.064Z,14.10
2023-03-02T03:34:41.057Z,14.70
2023-03-02T03:37:30.410Z,14.10
2023-03-02T03:40:06.592Z,14.20
2023-03-02T03:42:39.997Z,14.00
2023-03-02T03:45:09.190Z,16.10
2023-03-02T03:47:38.646Z,15.60
2023-03-02T03:50:09.576Z,17.40
2023-03-02T03:52:38.740Z,19.30
2023-03-02T03:55:33.722Z,16.70
2023-03-02T03:58:03.204Z,16.20
2023-03-02T04:00:31.690Z,14.00
2023-03-02T04:03:03.896Z,18.10
2023-03-02T04:05:33.856Z,17.00
2023-03-02T04:08:03.867Z,11.90
2023-03-02T04:10:35.048Z,12.20
2023-03-02T04:13:04.705Z,12.10
2023-03-02T04:15:34.599Z,10.50
2023-03-02T04:18:03.401Z,11.60
2023-03-02T04:20:33.378Z,9.90
2023-03-02T04:23:02.132Z,10.30
2023-03-02T04:25:33.832Z,11.00
2023-03-02T04:28:08.399Z,13.00
2023-03-02T04:30:45.155Z,14.40
2023-03-02T04:33:14.161Z,16.50
2023-03-02T04:35:43.056Z,16.80
2023-03-02T04:38:12.796Z,15.70
2023-03-02T04:40:41.574Z,17.70
2023-03-02T04:43:11.281Z,15.30
2023-03-02T04:45:40.914Z,17.30
2023-03-02T04:48:13.972Z,18.50
2023-03-02T04:50:45.256Z,14.70
2023-03-02T04:53:14.771Z,14.70
2023-03-02T04:55:43.267Z,13.40
2023-03-02T04:58:14.723Z,15.60
2023-03-02T05:00:43.109Z,14.90
2023-03-02T05:03:11.820Z,16.20
2023-03-02T05:05:40.255Z,12.80
2023-03-02T05:08:08.996Z,12.70
2023-03-02T05:10:41.572Z,12.80
2023-03-02T05:13:10.026Z,17.40
2023-03-02T05:15:39.964Z,17.80
2023-03-02T05:18:10.744Z,16.90
2023-03-02T05:20:39.451Z,17.70
2023-03-02T05:23:25.314Z,15.30
2023-03-02T05:25:55.377Z,14.60
2023-03-02T05:28:27.020Z,14.50
2023-03-02T05:30:55.838Z,13.20
2023-03-02T05:33:24.725Z,10.70
2023-03-02T05:35:53.213Z,9.90
2023-03-02T05:38:21.661Z,9.30
2023-03-02T05:40:50.428Z,9.50
2023-03-02T05:43:20.671Z,7.30
2023-03-02T05:45:50.333Z,7.20
2023-03-02T05:48:20.201Z,8.00
2023-03-02T05:50:48.739Z,7.30
2023-03-02T05:53:17.232Z,7.40
2023-03-02T05:55:45.674Z,7.40
2023-03-02T05:58:15.999Z,7.10
2023-03-02T06:00:50.661Z,8.70
2023-03-02T06:03:19.449Z,8.20
2023-03-02T06:05:52.528Z,9.90
2023-03-02T06:08:23.309Z,9.70
2023-03-02T06:10:56.235Z,9.80
2023-03-02T06:15:53.134Z,6.80
2023-03-02T06:18:21.988Z,6.40
2023-03-02T06:20:50.987Z,5.90
2023-03-02T06:23:19.980Z,5.30
2023-03-02T06:25:49.245Z,6.40
2023-03-02T06:28:20.209Z,7.10
2023-03-02T06:30:49.181Z,6.20
2023-03-02T06:33:21.706Z,7.20
2023-03-02T06:35:50.640Z,9.70
2023-03-02T06:38:19.259Z,11.00
2023-03-02T06:40:47.785Z,8.60
2023-03-02T06:43:17.258Z,7.90
2023-03-02T06:45:45.815Z,7.30
2023-03-02T06:48:14.323Z,6.40
2023-03-02T06:50:42.861Z,6.40
2023-03-02T06:53:12.482Z,6.70
2023-03-02T06:55:40.951Z,5.70
2023-03-02T06:58:13.364Z,6.40
2023-03-02T07:00:41.847Z,6.50
2023-03-02T07:03:12.861Z,8.70
2023-03-02T07:05:41.560Z,6.60
2023-03-02T07:08:15.696Z,7.20
2023-03-02T07:10:44.883Z,7.60
2023-03-02T07:13:13.407Z,7.40
2023-03-02T07:15:45.640Z,5.90
2023-03-02T07:18:15.516Z,5.90
2023-03-02T07:20:43.953Z,7.80
2023-03-02T07:23:12.993Z,7.70
2023-03-02T07:25:41.832Z,6.40
2023-03-02T07:28:12.051Z,5.60
2023-03-02T07:30:40.587Z,5.10
2023-03-02T07:33:09.193Z,5.00
2023-03-02T07:35:37.897Z,5.70
2023-03-02T07:38:06.407Z,4.70
2023-03-02T07:40:35.039Z,5.30
2023-03-02T07:43:03.753Z,5.00
2023-03-02T07:45:33.869Z,5.10
2023-03-02T07:48:02.782Z,4.50
2023-03-02T07:50:33.381Z,5.00
2023-03-02T07:53:02.136Z,5.20
2023-03-02T07:55:30.981Z,4.90
2023-03-02T07:58:00.728Z,4.70
2023-03-02T08:00:29.870Z,7.40
2023-03-02T08:02:58.383Z,6.00
2023-03-02T08:05:28.878Z,6.70
2023-03-02T08:07:57.357Z,6.10
2023-03-02T08:10:27.006Z,4.80
2023-03-02T08:12:55.597Z,4.60
2023-03-02T08:15:25.627Z,4.60
2023-03-02T08:17:54.360Z,4.90
2023-03-02T08:20:23.160Z,4.70
2023-03-02T08:22:52.479Z,5.50
2023-03-02T08:25:20.995Z,4.60
2023-03-02T08:27:49.833Z,4.40
2023-03-02T08:30:22.521Z,4.20
2023-03-02T08:32:51.519Z,4.50
2023-03-02T08:35:22.510Z,3.60
2023-03-02T08:37:51.856Z,4.60
2023-03-02T08:40:21.800Z,3.80
2023-03-02T08:42:57.042Z,3.40
2023-03-02T08:45:25.949Z,3.20
2023-03-02T08:47:55.081Z,3.50
2023-03-02T08:50:23.738Z,3.30
2023-03-02T08:52:52.731Z,3.20
2023-03-02T08:55:22.328Z,3.10
2023-03-02T08:57:50.913Z,2.80
2023-03-02T09:00:20.711Z,3.50
2023-03-02T09:02:49.439Z,3.90
2023-03-02T09:05:18.257Z,3.30
2023-03-02T09:07:46.898Z,2.70
2023-03-02T09:10:18.134Z,8.60
2023-03-02T09:12:48.998Z,8.50
2023-03-02T09:15:17.780Z,4.80
2023-03-02T09:17:53.386Z,5.50
2023-03-02T09:20:23.954Z,3.60
2023-03-02T09:22:52.607Z,3.50
2023-03-02T09:25:21.404Z,3.90
2023-03-02T09:27:50.519Z,3.00
2023-03-02T09:30:20.014Z,2.90
2023-03-02T09:32:49.477Z,4.00
2023-03-02T09:35:18.399Z,3.60
2023-03-02T09:37:47.200Z,3.90
2023-03-02T09:40:24.182Z,3.90
2023-03-02T09:43:17.750Z,4.00
2023-03-02T09:45:55.089Z,5.90
2023-03-02T09:48:53.790Z,3.50
2023-03-02T09:51:33.157Z,4.20
2023-03-02T09:54:10.925Z,10.70
2023-03-02T09:56:50.002Z,5.50
2023-03-02T09:59:38.443Z,4.30
2023-03-02T10:02:16.286Z,5.50
2023-03-02T10:04:49.638Z,7.40
2023-03-02T10:07:24.493Z,3.80
2023-03-02T10:09:53.002Z,4.70
2023-03-02T10:12:36.153Z,4.70
2023-03-02T10:15:43.911Z,3.60
2023-03-02T10:18:31.022Z,5.00
2023-03-02T10:21:09.828Z,4.40
2023-03-02T10:24:05.450Z,4.60
2023-03-02T10:29:49.412Z,3.50
2023-03-02T10:32:27.900Z,4.80
2023-03-02T10:35:02.549Z,3.40
2023-03-02T10:37:31.878Z,4.70
2023-03-02T10:40:11.736Z,5.30
2023-03-02T10:42:44.210Z,9.30
2023-03-02T10:45:30.223Z,8.20
2023-03-02T10:48:13.597Z,5.10
2023-03-02T10:50:43.238Z,4.00
2023-03-02T10:53:19.663Z,3.90
2023-03-02T10:55:53.270Z,3.60
2023-03-02T10:58:26.243Z,4.30
2023-03-02T11:00:57.582Z,4.00
2023-03-02T11:03:26.340Z,4.00
2023-03-02T11:05:56.203Z,3.20
2023-03-02T11:08:29.100Z,3.00
2023-03-02T11:11:01.504Z,2.70
2023-03-02T11:13:32.598Z,3.20
2023-03-02T11:16:21.817Z,3.80
2023-03-02T11:18:50.546Z,4.90
2023-03-02T11:21:33.521Z,3.10
2023-03-02T11:26:58.326Z,2.60
2023-03-02T11:29:37.607Z,4.40
2023-03-02T11:32:13.626Z,3.30
2023-03-02T11:34:54.974Z,6.50
2023-03-02T11:37:44.731Z,4.30
2023-03-02T11:40:26.781Z,4.70
2023-03-02T11:42:56.964Z,7.90
2023-03-02T11:45:30.569Z,5.50
2023-03-02T11:48:03.330Z,6.70
2023-03-02T11:50:34.648Z,4.80
2023-03-02T11:53:08.286Z,4.40
2023-03-02T11:55:45.798Z,4.60
2023-03-02T11:58:18.800Z,9.10
2023-03-02T12:00:47.980Z,7.90
2023-03-02T12:03:17.345Z,14.50
2023-03-02T12:06:01.364Z,6.10
2023-03-02T12:08:35.459Z,6.80
2023-03-02T12:11:08.607Z,6.50
2023-03-02T12:13:38.634Z,5.80
2023-03-02T12:16:24.256Z,6.90
2023-03-02T12:18:53.481Z,6.40
2023-03-02T12:21:23.563Z,5.60
2023-03-02T12:23:52.531Z,5.30
2023-03-02T12:26:21.059Z,5.30
2023-03-02T12:29:00.386Z,4.60
2023-03-02T12:31:47.154Z,5.50
2023-03-02T12:34:29.094Z,5.00
2023-03-02T12:37:00.539Z,5.30
2023-03-02T12:39:28.996Z,5.10
2023-03-02T12:42:15.793Z,5.00
2023-03-02T12:44:52.564Z,5.60
2023-03-02T12:47:27.505Z,4.00
2023-03-02T12:50:01.940Z,4.50
2023-03-02T12:52:35.395Z,4.70
2023-03-02T12:55:08.282Z,5.00
2023-03-02T12:57:38.715Z,5.60
2023-03-02T13:00:15.538Z,4.10
2023-03-02T13:02:49.392Z,3.90
2023-03-02T13:05:29.334Z,4.30
2023-03-02T13:08:06.123Z,5.40
2023-03-02T13:10:40.684Z,5.00
2023-03-02T13:13:25.210Z,5.20
2023-03-02T13:15:55.879Z,4.10
2023-03-02T13:18:26.074Z,3.20
2023-03-02T13:20:55.974Z,3.60
2023-03-02T13:23:24.983Z,3.30
2023-03-02T13:25:58.375Z,3.00
2023-03-02T13:28:38.640Z,3.00
2023-03-02T13:31:23.130Z,3.20
2023-03-02T13:33:54.852Z,2.80
2023-03-02T13:36:28.431Z,2.80
2023-03-02T13:38:59.649Z,3.80
2023-03-02T13:41:30.106Z,3.20
2023-03-02T13:44:12.698Z,4.00
2023-03-02T13:46:42.390Z,5.10
2023-03-02T13:49:11.834Z,4.00
2023-03-02T13:51:42.734Z,7.10
2023-03-02T13:54:17.327Z,4.50
2023-03-02T13:56:46.149Z,3.50
2023-03-02T13:59:16.739Z,3.90
2023-03-02T14:01:45.494Z,3.80
2023-03-02T14:04:28.079Z,3.30
2023-03-02T14:07:00.029Z,4.20
2023-03-02T14:09:28.574Z,3.10
2023-03-02T14:12:03.390Z,3.40
2023-03-02T14:14:33.395Z,2.40
2023-03-02T14:17:01.840Z,2.90
2023-03-02T14:19:31.847Z,4.30
2023-03-02T14:22:00.639Z,3.10
2023-03-02T14:24:29.213Z,3.00
2023-03-02T14:26:57.634Z,3.40
2023-03-02T14:29:27.822Z,3.10
2023-03-02T14:32:00.524Z,2.90
2023-03-02T14:34:29.902Z,3.20
2023-03-02T14:36:59.810Z,3.30
2023-03-02T14:39:43.329Z,2.80
2023-03-02T14:44:42.987Z,3.10
2023-03-02T14:47:11.881Z,3.40
2023-03-02T14:49:40.428Z,3.00
2023-03-02T14:52:32.736Z,4.00
2023-03-02T14:55:03.388Z,3.80
2023-03-02T14:57:33.984Z,4.40
2023-03-02T15:00:03.183Z,4.70
2023-03-02T15:02:32.068Z,4.20
2023-03-02T15:05:14.269Z,4.80
2023-03-02T15:07:44.265Z,5.10
2023-03-02T15:10:18.501Z,5.20
2023-03-02T15:12:47.011Z,5.80
2023-03-02T15:15:16.856Z,5.60
2023-03-02T15:17:45.860Z,5.00
2023-03-02T15:20:17.642Z,6.20
2023-03-02T15:22:47.392Z,6.30
2023-03-02T15:25:17.583Z,6.50
2023-03-02T15:27:47.162Z,5.70
2023-03-02T15:30:17.910Z,7.80
2023-03-02T15:32:47.851Z,8.00
2023-03-02T15:35:16.560Z,8.60
2023-03-02T15:37:45.712Z,8.20
2023-03-02T15:40:15.062Z,7.10
2023-03-02T15:42:43.525Z,6.60
2023-03-02T15:45:12.108Z,6.80
2023-03-02T15:47:40.597Z,6.80
2023-03-02T15:50:10.723Z,7.20
2023-03-02T15:52:39.332Z,8.60
2023-03-02T15:55:08.140Z,8.60
2023-03-02T15:57:39.256Z,9.00
2023-03-02T16:00:13.716Z,10.80
2023-03-02T16:02:43.523Z,17.20
2023-03-02T16:05:17.410Z,18.80
2023-03-02T16:07:46.895Z,18.40
2023-03-02T16:10:16.858Z,16.00
2023-03-02T16:12:45.282Z,17.00
2023-03-02T16:15:15.018Z,16.60
2023-03-02T16:17:44.151Z,16.40
2023-03-02T16:20:13.210Z,15.00
2023-03-02T16:22:41.780Z,13.20
2023-03-02T16:25:10.710Z,10.90
2023-03-02T16:27:39.506Z,9.70
2023-03-02T16:30:11.515Z,8.90
2023-03-02T16:32:40.734Z,9.00
2023-03-02T16:35:10.303Z,10.90
2023-03-02T16:37:41.377Z,11.10
2023-03-02T16:40:11.485Z,10.70
2023-03-02T16:42:41.729Z,10.90
2023-03-02T16:45:11.495Z,13.00
2023-03-02T16:47:40.202Z,12.00
2023-03-02T16:50:10.543Z,14.20
2023-03-02T16:52:39.080Z,21.20
2023-03-02T16:55:11.661Z,19.80
2023-03-02T16:57:41.126Z,17.90
2023-03-02T17:00:12.058Z,18.60
2023-03-02T17:02:41.085Z,17.10
2023-03-02T17:05:11.559Z,15.00
2023-03-02T17:07:42.094Z,17.90
2023-03-02T17:10:14.189Z,17.10
2023-03-02T17:15:14.229Z,11.10
2023-03-02T17:17:42.974Z,15.00
2023-03-02T17:20:13.277Z,14.80
2023-03-02T17:22:41.835Z,13.10
2023-03-02T17:25:11.624Z,12.50
2023-03-02T17:27:40.804Z,10.50
2023-03-02T17:30:14.057Z,11.80
2023-03-02T17:32:42.595Z,11.10
2023-03-02T17:35:13.112Z,12.30
2023-03-02T17:37:42.044Z,12.50
2023-03-02T17:40:14.494Z,13.40
2023-03-02T17:42:43.805Z,12.80
2023-03-02T17:45:19.602Z,12.20
2023-03-02T17:47:49.744Z,12.00
2023-03-02T17:50:18.192Z,15.00
2023-03-02T17:52:47.901Z,15.30
2023-03-02T17:55:16.851Z,15.50
2023-03-02T17:57:45.517Z,14.30
2023-03-02T18:00:17.049Z,13.90
2023-03-02T18:02:46.793Z,15.80
2023-03-02T18:05:16.099Z,12.70
2023-03-02T18:07:44.604Z,10.70
2023-03-02T18:10:13.639Z,14.20
2023-03-02T18:12:42.723Z,12.40
2023-03-02T18:15:12.064Z,11.60
2023-03-02T18:17:40.549Z,9.30
2023-03-02T18:20:10.227Z,8.80
2023-03-02T18:22:38.622Z,9.20
2023-03-02T18:25:08.010Z,8.40
2023-03-02T18:27:40.525Z,8.40
2023-03-02T18:30:09.992Z,7.00
2023-03-02T18:32:39.442Z,7.20
2023-03-02T18:35:08.262Z,7.20
2023-03-02T18:37:37.844Z,6.90
2023-03-02T18:40:07.262Z,6.30
2023-03-02T18:42:36.666Z,7.30
2023-03-02T18:45:07.402Z,6.10
2023-03-02T18:47:36.879Z,6.80
2023-03-02T18:50:05.807Z,7.90
2023-03-02T18:52:34.729Z,7.60
2023-03-02T18:55:04.934Z,7.70
2023-03-02T18:57:34.258Z,7.90
2023-03-02T19:00:03.766Z,6.40
2023-03-02T19:02:32.616Z,5.70
2023-03-02T19:05:01.926Z,5.90
2023-03-02T19:07:37.078Z,5.70
2023-03-02T19:10:07.728Z,5.80
2023-03-02T19:12:41.324Z,5.80
2023-03-02T19:15:11.018Z,5.30
2023-03-02T19:17:40.437Z,5.80
2023-03-02T19:20:16.888Z,5.30
2023-03-02T19:22:45.277Z,5.60
2023-03-02T19:25:13.807Z,5.10
2023-03-02T19:27:42.282Z,4.70
2023-03-02T19:30:16.753Z,5.60
2023-03-02T19:35:18.118Z,4.60
2023-03-02T19:37:46.612Z,4.90
2023-03-02T19:40:17.587Z,5.40
2023-03-02T19:42:46.431Z,6.30
2023-03-02T19:45:17.177Z,6.80
2023-03-02T19:47:47.311Z,5.90
2023-03-02T19:50:35.646Z,6.20
2023-03-02T19:53:06.157Z,5.90
2023-03-02T19:55:34.577Z,6.40
2023-03-02T19:58:05.109Z,6.30
2023-03-02T20:00:34.498Z,5.70
2023-03-02T20:03:06.242Z,6.30
2023-03-02T20:05:37.390Z,5.80
2023-03-02T20:08:07.106Z,6.50
2023-03-02T20:10:38.384Z,6.50
2023-03-02T20:13:07.069Z,6.20
2023-03-02T20:15:39.330Z,6.10
2023-03-02T20:18:10.045Z,6.00
2023-03-02T20:36:31.945Z,5.10
2023-03-02T20:39:05.811Z,6.40
2023-03-02T20:41:34.185Z,5.50
2023-03-02T20:44:04.099Z,5.30
2023-03-02T20:46:36.662Z,5.30
2023-03-02T20:49:09.726Z,5.60
2023-03-02T20:51:39.342Z,5.70
2023-03-02T20:54:07.957Z,6.20
2023-03-02T20:56:37.502Z,6.10
2023-03-02T20:59:06.213Z,6.40
2023-03-02T21:01:34.618Z,6.40
2023-03-02T21:04:03.603Z,5.90
2023-03-02T21:06:36.558Z,6.40
2023-03-02T21:09:06.638Z,6.10
2023-03-02T21:11:41.516Z,6.30
2023-03-02T21:14:14.358Z,5.90
2023-03-02T21:16:43.693Z,4.90
2023-03-02T21:19:18.727Z,5.50
2023-03-02T21:21:47.439Z,5.10
2023-03-02T21:24:17.153Z,5.60
2023-03-02T21:26:46.489Z,5.30
2023-03-02T21:29:15.260Z,4.80
2023-03-02T21:31:44.194Z,6.20
2023-03-02T21:34:13.053Z,5.30
2023-03-02T21:36:42.865Z,5.90
2023-03-02T21:39:12.277Z,4.30
2023-03-02T21:41:40.658Z,6.40
2023-03-02T21:44:09.372Z,5.60
2023-03-02T21:46:39.586Z,5.80
2023-03-02T21:49:08.050Z,6.70
2023-03-02T21:51:36.530Z,6.80
2023-03-02T21:54:05.783Z,6.00
2023-03-02T21:56:35.699Z,5.80
2023-03-02T21:59:06.165Z,5.80
2023-03-02T22:01:35.076Z,3.20
2023-03-02T22:04:03.732Z,5.90
2023-03-02T22:06:33.500Z,6.30
2023-03-02T22:09:02.104Z,6.20
2023-03-02T22:11:33.169Z,6.30
2023-03-02T22:14:15.929Z,6.60
2023-03-02T22:16:47.575Z,6.00
2023-03-02T22:19:31.974Z,6.60
2023-03-02T22:22:01.419Z,6.20
2023-03-02T22:24:34.142Z,6.00
2023-03-02T22:27:29.596Z,6.00
2023-03-02T22:30:00.297Z,5.80
2023-03-02T22:32:36.623Z,4.70
2023-03-02T22:35:22.288Z,5.40
2023-03-02T22:37:54.759Z,5.00
2023-03-02T22:40:30.113Z,5.70
2023-03-02T22:43:31.620Z,5.50
2023-03-02T22:46:15.658Z,5.50
2023-03-02T22:48:45.614Z,5.10
2023-03-02T22:51:15.421Z,5.20
2023-03-02T22:54:07.897Z,4.40
2023-03-02T22:56:57.172Z,5.00
2023-03-02T22:59:27.004Z,5.20
2023-03-02T23:02:00.221Z,5.10
2023-03-02T23:04:32.434Z,5.30
2023-03-02T23:07:01.331Z,5.70
2023-03-02T23:09:34.219Z,5.30
2023-03-02T23:12:26.935Z,5.20
2023-03-02T23:14:58.696Z,4.10
2023-03-02T23:17:39.194Z,5.30
2023-03-02T23:20:11.131Z,5.00
2023-03-02T23:22:40.384Z,6.90
2023-03-02T23:25:09.441Z,11.00
2023-03-02T23:27:38.854Z,11.80
2023-03-02T23:30:07.888Z,11.90
2023-03-02T23:32:36.853Z,12.50
2023-03-02T23:35:06.042Z,10.30
2023-03-02T23:37:35.425Z,10.20
2023-03-02T23:40:04.589Z,9.70
2023-03-02T23:42:33.508Z,7.40
2023-03-02T23:45:01.951Z,6.20
2023-03-02T23:47:31.480Z,6.10
2023-03-02T23:50:00.103Z,5.40
2023-03-02T23:52:28.832Z,5.50
2023-03-02T23:54:57.403Z,5.40
2023-03-02T23:57:27.154Z,4.80
2023-03-02T23:59:56.177Z,4.60
